sensor_id;sensor_type;location;lat;lon;timestamp;pressure;altitude;pressure_sealevel;temperature;humidity
53300;BME280;39187;48.476;8.310;2023-02-27T00:00:50;91095.63;;;-7.31;100.00
53300;BME280;39187;48.476;8.310;2023-02-27T00:03:16;91106.09;;;-7.36;100.00
53300;BME280;39187;48.476;8.310;2023-02-27T00:05:41;91119.34;;;-7.37;100.00
53300;BME280;39187;48.476;8.310;2023-02-27T00:08:07;91094.41;;;-7.42;100.00
53300;BME280;39187;48.476;8.310;2023-02-27T00:10:32;91104.16;;;-7.47;100.00
53300;BME280;39187;48.476;8.310;2023-02-27T00:12:58;91107.78;;;-7.31;100.00
53300;BME280;39187;48.476;8.310;2023-02-27T00:15:24;91117.66;;;-7.24;100.00
53300;BME280;39187;48.476;8.310;2023-02-27T00:17:49;91128.63;;;-7.36;100.00
53300;BME280;39187;48.476;8.310;2023-02-27T00:20:16;91131.50;;;-7.29;100.00
53300;BME280;39187;48.476;8.310;2023-02-27T00:22:43;91132.59;;;-7.39;100.00
53300;BME280;39187;48.476;8.310;2023-02-27T00:25:10;91113.13;;;-7.53;100.00
53300;BME280;39187;48.476;8.310;2023-02-27T00:27:36;91107.19;;;-7.45;100.00
53300;BME280;39187;48.476;8.310;2023-02-27T00:30:06;91143.22;;;-7.49;100.00
53300;BME280;39187;48.476;8.310;2023-02-27T00:32:32;91123.16;;;-7.52;100.00
53300;BME280;39187;48.476;8.310;2023-02-27T00:34:57;91115.84;;;-7.41;100.00
53300;BME280;39187;48.476;8.310;2023-02-27T00:37:23;91106.75;;;-7.47;100.00
53300;BME280;39187;48.476;8.310;2023-02-27T00:39:49;91147.66;;;-7.49;100.00
53300;BME280;39187;48.476;8.310;2023-02-27T00:42:15;91102.34;;;-7.38;100.00
53300;BME280;39187;48.476;8.310;2023-02-27T00:44:40;91113.25;;;-7.41;100.00
53300;BME280;39187;48.476;8.310;2023-02-27T00:47:06;91110.09;;;-7.38;100.00
53300;BME280;39187;48.476;8.310;2023-02-27T00:49:32;91136.53;;;-7.33;100.00
53300;BME280;39187;48.476;8.310;2023-02-27T00:51:58;91121.03;;;-7.58;100.00
53300;BME280;39187;48.476;8.310;2023-02-27T00:54:23;91111.59;;;-7.54;100.00
53300;BME280;39187;48.476;8.310;2023-02-27T00:56:49;91112.69;;;-7.55;100.00
53300;BME280;39187;48.476;8.310;2023-02-27T00:59:14;91144.28;;;-7.67;100.00
53300;BME280;39187;48.476;8.310;2023-02-27T01:01:40;91126.34;;;-7.55;100.00
53300;BME280;39187;48.476;8.310;2023-02-27T01:04:06;91121.63;;;-7.61;100.00
53300;BME280;39187;48.476;8.310;2023-02-27T01:06:31;91114.66;;;-7.61;100.00
53300;BME280;39187;48.476;8.310;2023-02-27T01:08:57;91144.00;;;-7.57;100.00
53300;BME280;39187;48.476;8.310;2023-02-27T01:11:22;91115.56;;;-7.65;100.00
53300;BME280;39187;48.476;8.310;2023-02-27T01:13:48;91104.34;;;-7.70;100.00
53300;BME280;39187;48.476;8.310;2023-02-27T01:16:13;91114.50;;;-7.56;100.00
53300;BME280;39187;48.476;8.310;2023-02-27T01:18:39;91125.00;;;-7.44;100.00
53300;BME280;39187;48.476;8.310;2023-02-27T01:21:05;91111.00;;;-7.51;100.00
53300;BME280;39187;48.476;8.310;2023-02-27T01:23:30;91111.47;;;-7.49;100.00
53300;BME280;39187;48.476;8.310;2023-02-27T01:25:56;91126.34;;;-7.55;100.00
53300;BME280;39187;48.476;8.310;2023-02-27T01:28:21;91111.16;;;-7.56;100.00
53300;BME280;39187;48.476;8.310;2023-02-27T01:30:47;91093.09;;;-7.56;100.00
53300;BME280;39187;48.476;8.310;2023-02-27T01:33:13;91116.16;;;-7.60;100.00
53300;BME280;39187;48.476;8.310;2023-02-27T01:35:39;91122.72;;;-7.62;100.00
53300;BME280;39187;48.476;8.310;2023-02-27T01:38:05;91088.50;;;-7.68;100.00
53300;BME280;39187;48.476;8.310;2023-02-27T01:40:35;91118.16;;;-7.74;100.00
53300;BME280;39187;48.476;8.310;2023-02-27T01:43:00;91125.75;;;-7.69;100.00
53300;BME280;39187;48.476;8.310;2023-02-27T01:45:32;91107.69;;;-7.69;100.00
53300;BME280;39187;48.476;8.310;2023-02-27T01:48:03;91090.19;;;-7.72;100.00
53300;BME280;39187;48.476;8.310;2023-02-27T01:50:30;91104.78;;;-7.59;100.00
53300;BME280;39187;48.476;8.310;2023-02-27T01:52:58;91102.66;;;-7.57;100.00
53300;BME280;39187;48.476;8.310;2023-02-27T01:55:27;91111.31;;;-7.53;100.00
53300;BME280;39187;48.476;8.310;2023-02-27T01:57:55;91104.47;;;-7.66;100.00
53300;BME280;39187;48.476;8.310;2023-02-27T02:00:21;91096.13;;;-7.72;100.00
53300;BME280;39187;48.476;8.310;2023-02-27T02:03:04;91100.03;;;-7.48;100.00
53300;BME280;39187;48.476;8.310;2023-02-27T02:05:31;91137.75;;;-7.64;100.00
53300;BME280;39187;48.476;8.310;2023-02-27T02:07:57;91079.56;;;-7.62;100.00
53300;BME280;39187;48.476;8.310;2023-02-27T02:10:24;91098.84;;;-7.68;100.00
53300;BME280;39187;48.476;8.310;2023-02-27T02:12:50;91092.63;;;-7.67;100.00
53300;BME280;39187;48.476;8.310;2023-02-27T02:15:16;91097.31;;;-7.60;100.00
53300;BME280;39187;48.476;8.310;2023-02-27T02:21:08;91125.91;;;-7.65;100.00
53300;BME280;39187;48.476;8.310;2023-02-27T02:26:29;91128.78;;;-7.58;100.00
53300;BME280;39187;48.476;8.310;2023-02-27T02:34:26;91093.69;;;-7.59;100.00
53300;BME280;39187;48.476;8.310;2023-02-27T02:42:26;91089.56;;;-7.52;100.00
53300;BME280;39187;48.476;8.310;2023-02-27T02:47:40;91082.13;;;-7.53;100.00
53300;BME280;39187;48.476;8.310;2023-02-27T02:57:54;91099.91;;;-7.43;100.00
53300;BME280;39187;48.476;8.310;2023-02-27T03:00:34;91085.75;;;-7.46;100.00
53300;BME280;39187;48.476;8.310;2023-02-27T03:06:17;91091.25;;;-7.56;100.00
53300;BME280;39187;48.476;8.310;2023-02-27T03:09:06;91096.13;;;-7.72;100.00
53300;BME280;39187;48.476;8.310;2023-02-27T03:11:37;91097.78;;;-7.50;100.00
53300;BME280;39187;48.476;8.310;2023-02-27T03:16:43;91078.47;;;-7.61;100.00
53300;BME280;39187;48.476;8.310;2023-02-27T03:19:22;91086.34;;;-7.40;100.00
53300;BME280;39187;48.476;8.310;2023-02-27T03:21:55;91075.13;;;-7.61;100.00
53300;BME280;39187;48.476;8.310;2023-02-27T03:24:30;91080.94;;;-7.56;100.00
53300;BME280;39187;48.476;8.310;2023-02-27T03:26:57;91087.88;;;-7.48;100.00
53300;BME280;39187;48.476;8.310;2023-02-27T03:29:38;91086.81;;;-7.38;100.00
53300;BME280;39187;48.476;8.310;2023-02-27T03:32:17;91096.13;;;-7.72;100.00
53300;BME280;39187;48.476;8.310;2023-02-27T03:34:47;91110.13;;;-7.81;100.00
53300;BME280;39187;48.476;8.310;2023-02-27T03:37:23;91110.41;;;-7.83;100.00
53300;BME280;39187;48.476;8.310;2023-02-27T03:40:05;91096.88;;;-7.71;100.00
53300;BME280;39187;48.476;8.310;2023-02-27T03:42:48;91099.16;;;-7.70;100.00
53300;BME280;39187;48.476;8.310;2023-02-27T03:45:39;91100.06;;;-7.65;100.00
53300;BME280;39187;48.476;8.310;2023-02-27T03:48:07;91113.44;;;-7.81;100.00
53300;BME280;39187;48.476;8.310;2023-02-27T03:50:35;91131.81;;;-7.74;100.00
53300;BME280;39187;48.476;8.310;2023-02-27T03:53:04;91122.09;;;-7.68;100.00
53300;BME280;39187;48.476;8.310;2023-02-27T03:55:35;91111.47;;;-7.84;100.00
53300;BME280;39187;48.476;8.310;2023-02-27T03:58:03;91138.38;;;-7.76;100.00
53300;BME280;39187;48.476;8.310;2023-02-27T04:00:29;91111.78;;;-7.85;100.00
53300;BME280;39187;48.476;8.310;2023-02-27T04:02:57;91113.59;;;-7.68;100.00
53300;BME280;39187;48.476;8.310;2023-02-27T04:05:24;91116.00;;;-7.81;100.00
53300;BME280;39187;48.476;8.310;2023-02-27T04:21:55;91117.72;;;-7.76;100.00
53300;BME280;39187;48.476;8.310;2023-02-27T04:32:56;91182.72;;;-7.91;100.00
53300;BME280;39187;48.476;8.310;2023-02-27T04:35:36;91118.31;;;-7.88;100.00
53300;BME280;39187;48.476;8.310;2023-02-27T04:38:25;91142.59;;;-7.80;100.00
53300;BME280;39187;48.476;8.310;2023-02-27T04:41:07;91128.19;;;-7.64;100.00
53300;BME280;39187;48.476;8.310;2023-02-27T04:43:36;91130.78;;;-7.81;100.00
53300;BME280;39187;48.476;8.310;2023-02-27T04:46:05;91142.94;;;-7.82;100.00
53300;BME280;39187;48.476;8.310;2023-02-27T04:48:40;91131.38;;;-7.84;100.00
53300;BME280;39187;48.476;8.310;2023-02-27T04:51:17;91123.16;;;-7.86;100.00
53300;BME280;39187;48.476;8.310;2023-02-27T04:54:11;91147.78;;;-7.89;100.00
53300;BME280;39187;48.476;8.310;2023-02-27T04:56:59;91125.31;;;-7.71;100.00
53300;BME280;39187;48.476;8.310;2023-02-27T04:59:35;91147.31;;;-7.91;100.00
53300;BME280;39187;48.476;8.310;2023-02-27T05:04:39;91142.78;;;-7.94;100.00
53300;BME280;39187;48.476;8.310;2023-02-27T05:07:09;91178.75;;;-7.97;100.00
53300;BME280;39187;48.476;8.310;2023-02-27T05:09:44;91158.25;;;-7.85;100.00
53300;BME280;39187;48.476;8.310;2023-02-27T05:12:19;91124.69;;;-7.77;100.00
53300;BME280;39187;48.476;8.310;2023-02-27T05:15:04;91129.09;;;-7.86;100.00
53300;BME280;39187;48.476;8.310;2023-02-27T05:17:40;91139.13;;;-7.84;100.00
53300;BME280;39187;48.476;8.310;2023-02-27T05:20:07;91128.19;;;-7.90;100.00
53300;BME280;39187;48.476;8.310;2023-02-27T05:25:09;91118.59;;;-7.98;100.00
53300;BME280;39187;48.476;8.310;2023-02-27T05:27:46;91163.72;;;-7.95;100.00
53300;BME280;39187;48.476;8.310;2023-02-27T05:30:22;91127.28;;;-7.94;100.00
53300;BME280;39187;48.476;8.310;2023-02-27T05:35:59;91138.22;;;-7.88;100.00
53300;BME280;39187;48.476;8.310;2023-02-27T05:38:35;91157.34;;;-7.81;100.00
53300;BME280;39187;48.476;8.310;2023-02-27T05:41:15;91132.56;;;-7.99;100.00
53300;BME280;39187;48.476;8.310;2023-02-27T05:43:49;91146.84;;;-7.93;100.00
53300;BME280;39187;48.476;8.310;2023-02-27T05:46:21;91120.91;;;-7.88;100.00
53300;BME280;39187;48.476;8.310;2023-02-27T05:48:56;91167.19;;;-8.00;100.00
53300;BME280;39187;48.476;8.310;2023-02-27T05:51:26;91176.97;;;-7.88;100.00
53300;BME280;39187;48.476;8.310;2023-02-27T05:54:02;91141.41;;;-7.83;100.00
53300;BME280;39187;48.476;8.310;2023-02-27T05:56:32;91149.28;;;-7.79;100.00
53300;BME280;39187;48.476;8.310;2023-02-27T05:59:16;91176.59;;;-8.04;100.00
53300;BME280;39187;48.476;8.310;2023-02-27T06:01:46;91144.28;;;-7.84;100.00
53300;BME280;39187;48.476;8.310;2023-02-27T06:04:12;91155.53;;;-7.89;100.00
53300;BME280;39187;48.476;8.310;2023-02-27T06:06:38;91193.16;;;-8.05;100.00
53300;BME280;39187;48.476;8.310;2023-02-27T06:09:07;91170.72;;;-7.96;100.00
53300;BME280;39187;48.476;8.310;2023-02-27T06:11:32;91142.91;;;-8.07;100.00
53300;BME280;39187;48.476;8.310;2023-02-27T06:13:58;91164.31;;;-7.98;100.00
53300;BME280;39187;48.476;8.310;2023-02-27T06:16:23;91180.56;;;-7.98;100.00
53300;BME280;39187;48.476;8.310;2023-02-27T06:18:49;91153.56;;;-7.83;100.00
53300;BME280;39187;48.476;8.310;2023-02-27T06:21:14;91202.00;;;-7.97;100.00
53300;BME280;39187;48.476;8.310;2023-02-27T06:23:40;91173.72;;;-8.11;100.00
53300;BME280;39187;48.476;8.310;2023-02-27T06:26:05;91167.81;;;-7.86;100.00
53300;BME280;39187;48.476;8.310;2023-02-27T06:28:32;91161.72;;;-7.98;100.00
53300;BME280;39187;48.476;8.310;2023-02-27T06:30:58;91157.06;;;-7.88;100.00
53300;BME280;39187;48.476;8.310;2023-02-27T06:33:24;91174.19;;;-7.92;100.00
53300;BME280;39187;48.476;8.310;2023-02-27T06:35:50;91159.16;;;-7.98;100.00
53300;BME280;39187;48.476;8.310;2023-02-27T06:38:16;91161.44;;;-7.97;100.00
53300;BME280;39187;48.476;8.310;2023-02-27T06:40:42;91207.16;;;-7.97;100.00
53300;BME280;39187;48.476;8.310;2023-02-27T06:43:08;91212.16;;;-8.01;100.00
53300;BME280;39187;48.476;8.310;2023-02-27T06:45:33;91178.13;;;-8.03;100.00
53300;BME280;39187;48.476;8.310;2023-02-27T06:47:59;91211.69;;;-8.03;100.00
53300;BME280;39187;48.476;8.310;2023-02-27T06:50:24;91206.09;;;-7.96;100.00
53300;BME280;39187;48.476;8.310;2023-02-27T06:52:50;91177.06;;;-8.02;100.00
53300;BME280;39187;48.476;8.310;2023-02-27T06:55:16;91172.84;;;-7.81;100.00
53300;BME280;39187;48.476;8.310;2023-02-27T06:57:45;91195.78;;;-7.79;100.00
53300;BME280;39187;48.476;8.310;2023-02-27T07:00:12;91189.28;;;-7.77;100.00
53300;BME280;39187;48.476;8.310;2023-02-27T07:02:38;91214.31;;;-7.94;100.00
53300;BME280;39187;48.476;8.310;2023-02-27T07:05:04;91230.75;;;-7.82;100.00
53300;BME280;39187;48.476;8.310;2023-02-27T07:07:32;91219.22;;;-7.76;100.00
53300;BME280;39187;48.476;8.310;2023-02-27T07:09:58;91187.59;;;-7.73;100.00
53300;BME280;39187;48.476;8.310;2023-02-27T07:12:24;91194.91;;;-7.75;100.00
53300;BME280;39187;48.476;8.310;2023-02-27T07:14:49;91200.97;;;-7.79;100.00
53300;BME280;39187;48.476;8.310;2023-02-27T07:17:15;91226.97;;;-7.76;100.00
53300;BME280;39187;48.476;8.310;2023-02-27T07:19:40;91200.53;;;-7.64;100.00
53300;BME280;39187;48.476;8.310;2023-02-27T07:22:06;91200.38;;;-7.59;100.00
53300;BME280;39187;48.476;8.310;2023-02-27T07:24:34;91204.63;;;-7.63;100.00
53300;BME280;39187;48.476;8.310;2023-02-27T07:26:59;91204.03;;;-7.60;100.00
53300;BME280;39187;48.476;8.310;2023-02-27T07:29:25;91226.66;;;-7.65;100.00
53300;BME280;39187;48.476;8.310;2023-02-27T07:31:51;91211.78;;;-7.68;100.00
53300;BME280;39187;48.476;8.310;2023-02-27T07:34:16;91229.09;;;-7.69;100.00
53300;BME280;39187;48.476;8.310;2023-02-27T07:36:42;91207.53;;;-7.56;100.00
53300;BME280;39187;48.476;8.310;2023-02-27T07:39:08;91209.06;;;-7.46;100.00
53300;BME280;39187;48.476;8.310;2023-02-27T07:41:35;91216.03;;;-7.47;100.00
53300;BME280;39187;48.476;8.310;2023-02-27T07:44:00;91239.75;;;-7.62;100.00
53300;BME280;39187;48.476;8.310;2023-02-27T07:46:26;91209.50;;;-7.36;100.00
53300;BME280;39187;48.476;8.310;2023-02-27T07:48:52;91209.97;;;-7.34;100.00
53300;BME280;39187;48.476;8.310;2023-02-27T07:51:18;91215.00;;;-7.37;100.00
53300;BME280;39187;48.476;8.310;2023-02-27T07:53:44;91216.50;;;-7.19;100.00
53300;BME280;39187;48.476;8.310;2023-02-27T07:56:10;91235.50;;;-7.15;100.00
53300;BME280;39187;48.476;8.310;2023-02-27T07:58:35;91216.22;;;-7.17;100.00
53300;BME280;39187;48.476;8.310;2023-02-27T08:01:01;91232.19;;;-7.24;100.00
53300;BME280;39187;48.476;8.310;2023-02-27T08:03:27;91236.28;;;-7.14;100.00
53300;BME280;39187;48.476;8.310;2023-02-27T08:05:52;91216.19;;;-7.09;100.00
53300;BME280;39187;48.476;8.310;2023-02-27T08:08:18;91280.84;;;-7.00;100.00
53300;BME280;39187;48.476;8.310;2023-02-27T08:10:43;91223.78;;;-6.86;100.00
53300;BME280;39187;48.476;8.310;2023-02-27T08:13:09;91233.38;;;-6.87;100.00
53300;BME280;39187;48.476;8.310;2023-02-27T08:15:34;91236.09;;;-6.75;100.00
53300;BME280;39187;48.476;8.310;2023-02-27T08:18:00;91277.50;;;-6.92;100.00
53300;BME280;39187;48.476;8.310;2023-02-27T08:20:26;91287.84;;;-6.83;100.00
53300;BME280;39187;48.476;8.310;2023-02-27T08:22:52;91274.00;;;-6.96;100.00
53300;BME280;39187;48.476;8.310;2023-02-27T08:25:17;91251.16;;;-6.77;100.00
53300;BME280;39187;48.476;8.310;2023-02-27T08:27:44;91248.88;;;-6.70;100.00
53300;BME280;39187;48.476;8.310;2023-02-27T08:30:11;91323.00;;;-6.82;100.00
53300;BME280;39187;48.476;8.310;2023-02-27T08:32:37;91268.53;;;-6.86;100.00
53300;BME280;39187;48.476;8.310;2023-02-27T08:35:03;91276.13;;;-6.81;100.00
53300;BME280;39187;48.476;8.310;2023-02-27T08:37:29;91287.06;;;-6.84;100.00
53300;BME280;39187;48.476;8.310;2023-02-27T08:39:55;91269.53;;;-6.35;100.00
53300;BME280;39187;48.476;8.310;2023-02-27T08:42:21;91249.13;;;-6.45;100.00
53300;BME280;39187;48.476;8.310;2023-02-27T08:44:46;91265.69;;;-6.29;100.00
53300;BME280;39187;48.476;8.310;2023-02-27T08:47:15;91258.81;;;-6.17;100.00
53300;BME280;39187;48.476;8.310;2023-02-27T08:49:40;91273.88;;;-6.10;100.00
53300;BME280;39187;48.476;8.310;2023-02-27T08:52:06;91277.81;;;-5.75;100.00
53300;BME280;39187;48.476;8.310;2023-02-27T08:54:34;91266.63;;;-5.58;100.00
53300;BME280;39187;48.476;8.310;2023-02-27T08:57:02;91271.53;;;-5.65;100.00
53300;BME280;39187;48.476;8.310;2023-02-27T08:59:28;91269.41;;;-5.72;100.00
53300;BME280;39187;48.476;8.310;2023-02-27T09:01:54;91286.16;;;-5.69;100.00
53300;BME280;39187;48.476;8.310;2023-02-27T09:04:20;91266.66;;;-5.67;100.00
53300;BME280;39187;48.476;8.310;2023-02-27T09:06:45;91298.06;;;-5.68;100.00
53300;BME280;39187;48.476;8.310;2023-02-27T09:09:11;91282.78;;;-5.61;100.00
53300;BME280;39187;48.476;8.310;2023-02-27T09:11:37;91292.69;;;-5.63;99.10
53300;BME280;39187;48.476;8.310;2023-02-27T09:14:02;91309.03;;;-5.33;98.32
53300;BME280;39187;48.476;8.310;2023-02-27T09:16:28;91291.81;;;-5.38;97.71
53300;BME280;39187;48.476;8.310;2023-02-27T09:18:54;91295.13;;;-5.58;97.54
53300;BME280;39187;48.476;8.310;2023-02-27T09:21:19;91288.78;;;-5.40;95.99
53300;BME280;39187;48.476;8.310;2023-02-27T09:23:46;91332.28;;;-5.16;94.89
53300;BME280;39187;48.476;8.310;2023-02-27T09:26:11;91293.19;;;-4.90;92.87
53300;BME280;39187;48.476;8.310;2023-02-27T09:28:37;91296.66;;;-5.07;92.94
53300;BME280;39187;48.476;8.310;2023-02-27T09:31:05;91341.69;;;-5.11;91.89
53300;BME280;39187;48.476;8.310;2023-02-27T09:33:32;91301.53;;;-4.85;90.55
53300;BME280;39187;48.476;8.310;2023-02-27T09:35:58;91294.22;;;-4.82;91.45
53300;BME280;39187;48.476;8.310;2023-02-27T09:38:24;91306.03;;;-4.52;90.56
53300;BME280;39187;48.476;8.310;2023-02-27T09:40:51;91306.84;;;-4.60;87.74
53300;BME280;39187;48.476;8.310;2023-02-27T09:43:18;91301.72;;;-4.48;85.91
53300;BME280;39187;48.476;8.310;2023-02-27T09:45:51;91304.28;;;-4.27;86.51
53300;BME280;39187;48.476;8.310;2023-02-27T09:48:35;91310.13;;;-3.97;83.72
53300;BME280;39187;48.476;8.310;2023-02-27T09:51:03;91313.28;;;-3.92;81.32
53300;BME280;39187;48.476;8.310;2023-02-27T09:53:34;91289.78;;;-3.71;81.28
53300;BME280;39187;48.476;8.310;2023-02-27T10:01:24;91318.84;;;-4.02;78.34
53300;BME280;39187;48.476;8.310;2023-02-27T10:06:43;91299.75;;;-3.12;75.48
53300;BME280;39187;48.476;8.310;2023-02-27T10:09:40;91314.63;;;-3.13;74.67
53300;BME280;39187;48.476;8.310;2023-02-27T10:17:33;91322.88;;;-3.35;72.70
53300;BME280;39187;48.476;8.310;2023-02-27T10:20:02;91329.78;;;-3.39;72.48
53300;BME280;39187;48.476;8.310;2023-02-27T10:22:35;91348.53;;;-3.58;72.10
53300;BME280;39187;48.476;8.310;2023-02-27T10:25:10;91367.47;;;-3.70;72.27
53300;BME280;39187;48.476;8.310;2023-02-27T10:27:38;91322.09;;;-3.72;72.67
53300;BME280;39187;48.476;8.310;2023-02-27T10:30:20;91338.25;;;-3.99;72.83
53300;BME280;39187;48.476;8.310;2023-02-27T10:32:48;91313.97;;;-3.46;72.02
53300;BME280;39187;48.476;8.310;2023-02-27T10:35:36;91336.66;;;-3.22;70.08
53300;BME280;39187;48.476;8.310;2023-02-27T10:38:09;91360.38;;;-3.12;69.88
53300;BME280;39187;48.476;8.310;2023-02-27T10:40:38;91354.84;;;-3.35;70.42
53300;BME280;39187;48.476;8.310;2023-02-27T10:43:04;91344.09;;;-3.57;70.12
53300;BME280;39187;48.476;8.310;2023-02-27T10:45:32;91353.25;;;-3.84;69.48
53300;BME280;39187;48.476;8.310;2023-02-27T10:47:57;91348.03;;;-3.27;70.00
53300;BME280;39187;48.476;8.310;2023-02-27T10:50:27;91354.72;;;-3.95;69.05
53300;BME280;39187;48.476;8.310;2023-02-27T10:52:59;91398.16;;;-3.63;68.94
53300;BME280;39187;48.476;8.310;2023-02-27T10:55:31;91389.53;;;-3.31;68.03
53300;BME280;39187;48.476;8.310;2023-02-27T10:57:58;91357.44;;;-3.59;66.63
53300;BME280;39187;48.476;8.310;2023-02-27T11:02:58;91370.69;;;-3.40;68.23
53300;BME280;39187;48.476;8.310;2023-02-27T11:07:49;91360.69;;;-3.50;66.73
53300;BME280;39187;48.476;8.310;2023-02-27T11:10:21;91344.22;;;-3.30;67.13
53300;BME280;39187;48.476;8.310;2023-02-27T11:13:02;91336.66;;;-3.35;66.68
53300;BME280;39187;48.476;8.310;2023-02-27T11:15:34;91354.97;;;-2.95;66.19
53300;BME280;39187;48.476;8.310;2023-02-27T11:20:43;91340.31;;;-2.87;66.14
53300;BME280;39187;48.476;8.310;2023-02-27T11:23:20;91335.34;;;-3.04;65.43
53300;BME280;39187;48.476;8.310;2023-02-27T11:25:47;91352.69;;;-2.84;66.58
53300;BME280;39187;48.476;8.310;2023-02-27T11:28:24;91385.31;;;-2.74;65.09
53300;BME280;39187;48.476;8.310;2023-02-27T11:31:15;91362.44;;;-2.81;65.09
53300;BME280;39187;48.476;8.310;2023-02-27T11:33:54;91373.16;;;-3.31;64.31
53300;BME280;39187;48.476;8.310;2023-02-27T11:36:22;91364.72;;;-3.40;65.71
53300;BME280;39187;48.476;8.310;2023-02-27T11:39:02;91344.53;;;-3.43;65.25
53300;BME280;39187;48.476;8.310;2023-02-27T11:41:34;91391.06;;;-3.30;65.74
53300;BME280;39187;48.476;8.310;2023-02-27T11:44:01;91355.50;;;-3.38;66.94
53300;BME280;39187;48.476;8.310;2023-02-27T11:46:30;91359.44;;;-3.07;66.17
53300;BME280;39187;48.476;8.310;2023-02-27T11:49:08;91355.94;;;-2.99;64.83
53300;BME280;39187;48.476;8.310;2023-02-27T11:51:54;91349.63;;;-2.86;65.11
53300;BME280;39187;48.476;8.310;2023-02-27T11:54:42;91336.25;;;-2.60;64.47
53300;BME280;39187;48.476;8.310;2023-02-27T11:57:26;91352.22;;;-2.74;63.32
53300;BME280;39187;48.476;8.310;2023-02-27T12:00:01;91363.84;;;-3.20;62.96
53300;BME280;39187;48.476;8.310;2023-02-27T12:02:54;91370.69;;;-3.40;63.59
53300;BME280;39187;48.476;8.310;2023-02-27T12:05:32;91360.06;;;-3.47;63.19
53300;BME280;39187;48.476;8.310;2023-02-27T12:08:04;91361.78;;;-3.39;63.23
53300;BME280;39187;48.476;8.310;2023-02-27T12:10:46;91361.00;;;-3.51;63.27
53300;BME280;39187;48.476;8.310;2023-02-27T12:13:22;91382.53;;;-3.63;64.37
53300;BME280;39187;48.476;8.310;2023-02-27T12:16:21;91370.09;;;-3.45;64.09
53300;BME280;39187;48.476;8.310;2023-02-27T12:18:56;91357.22;;;-3.42;64.19
53300;BME280;39187;48.476;8.310;2023-02-27T12:21:27;91333.28;;;-3.23;64.63
53300;BME280;39187;48.476;8.310;2023-02-27T12:24:11;91348.78;;;-3.27;66.52
53300;BME280;39187;48.476;8.310;2023-02-27T12:26:43;91352.25;;;-3.22;64.56
53300;BME280;39187;48.476;8.310;2023-02-27T12:29:28;91358.84;;;-3.25;63.56
53300;BME280;39187;48.476;8.310;2023-02-27T12:32:13;91363.53;;;-3.31;63.72
53300;BME280;39187;48.476;8.310;2023-02-27T12:34:46;91348.66;;;-3.18;63.79
53300;BME280;39187;48.476;8.310;2023-02-27T12:37:23;91349.22;;;-3.12;63.15
53300;BME280;39187;48.476;8.310;2023-02-27T12:39:51;91418.31;;;-3.15;63.83
53300;BME280;39187;48.476;8.310;2023-02-27T12:50:09;91352.78;;;-3.29;63.26
53300;BME280;39187;48.476;8.310;2023-02-27T12:53:05;91349.41;;;-3.54;63.63
53300;BME280;39187;48.476;8.310;2023-02-27T12:55:46;91356.13;;;-3.53;64.30
53300;BME280;39187;48.476;8.310;2023-02-27T13:00:48;91354.97;;;-3.31;63.74
53300;BME280;39187;48.476;8.310;2023-02-27T13:03:20;91349.88;;;-3.03;63.45
53300;BME280;39187;48.476;8.310;2023-02-27T13:05:58;91388.47;;;-2.93;64.33
53300;BME280;39187;48.476;8.310;2023-02-27T13:11:11;91328.38;;;-3.12;63.86
53300;BME280;39187;48.476;8.310;2023-02-27T13:13:42;91397.91;;;-3.01;64.27
53300;BME280;39187;48.476;8.310;2023-02-27T13:16:12;91362.75;;;-3.07;64.52
53300;BME280;39187;48.476;8.310;2023-02-27T13:21:14;91361.13;;;-2.87;64.65
53300;BME280;39187;48.476;8.310;2023-02-27T13:23:56;91351.91;;;-2.85;65.06
53300;BME280;39187;48.476;8.310;2023-02-27T13:26:29;91376.13;;;-2.96;64.80
53300;BME280;39187;48.476;8.310;2023-02-27T13:28:56;91343.38;;;-3.09;65.96
53300;BME280;39187;48.476;8.310;2023-02-27T13:31:56;91340.44;;;-3.08;66.06
53300;BME280;39187;48.476;8.310;2023-02-27T13:34:26;91344.34;;;-3.02;66.11
53300;BME280;39187;48.476;8.310;2023-02-27T13:37:00;91343.25;;;-3.13;65.32
53300;BME280;39187;48.476;8.310;2023-02-27T13:44:50;91350.19;;;-3.41;66.68
53300;BME280;39187;48.476;8.310;2023-02-27T13:50:00;91342.94;;;-3.36;66.50
53300;BME280;39187;48.476;8.310;2023-02-27T13:52:31;91392.56;;;-3.41;66.25
53300;BME280;39187;48.476;8.310;2023-02-27T13:54:58;91357.22;;;-3.42;67.37
53300;BME280;39187;48.476;8.310;2023-02-27T13:57:30;91380.25;;;-3.65;67.92
53300;BME280;39187;48.476;8.310;2023-02-27T13:59:57;91353.44;;;-3.44;67.50
53300;BME280;39187;48.476;8.310;2023-02-27T14:02:52;91353.53;;;-3.53;67.81
53300;BME280;39187;48.476;8.310;2023-02-27T14:05:36;91373.25;;;-3.52;67.24
53300;BME280;39187;48.476;8.310;2023-02-27T14:08:14;91342.72;;;-3.31;67.10
53300;BME280;39187;48.476;8.310;2023-02-27T14:16:13;91363.22;;;-3.17;66.46
53300;BME280;39187;48.476;8.310;2023-02-27T14:18:59;91360.28;;;-3.03;65.75
53300;BME280;39187;48.476;8.310;2023-02-27T14:24:17;91384.56;;;-3.24;64.95
53300;BME280;39187;48.476;8.310;2023-02-27T14:26:44;91355.63;;;-3.34;64.88
53300;BME280;39187;48.476;8.310;2023-02-27T14:29:19;91355.28;;;-3.33;65.57
53300;BME280;39187;48.476;8.310;2023-02-27T14:31:45;91360.06;;;-3.10;65.58
53300;BME280;39187;48.476;8.310;2023-02-27T14:34:17;91349.34;;;-3.21;64.43
53300;BME280;39187;48.476;8.310;2023-02-27T14:36:50;91359.53;;;-3.28;65.12
53300;BME280;39187;48.476;8.310;2023-02-27T14:39:34;91355.84;;;-3.15;65.23
53300;BME280;39187;48.476;8.310;2023-02-27T14:45:14;91359.84;;;-3.05;63.66
53300;BME280;39187;48.476;8.310;2023-02-27T14:47:41;91357.34;;;-3.26;63.90
53300;BME280;39187;48.476;8.310;2023-02-27T14:52:49;91368.94;;;-3.24;64.71
53300;BME280;39187;48.476;8.310;2023-02-27T14:55:21;91350.84;;;-3.08;65.47
53300;BME280;39187;48.476;8.310;2023-02-27T14:58:08;91406.31;;;-3.52;65.16
53300;BME280;39187;48.476;8.310;2023-02-27T15:00:45;91387.97;;;-3.56;65.61
53300;BME280;39187;48.476;8.310;2023-02-27T15:05:51;91369.91;;;-3.52;65.92
53300;BME280;39187;48.476;8.310;2023-02-27T15:08:24;91385.84;;;-3.54;65.25
53300;BME280;39187;48.476;8.310;2023-02-27T15:10:51;91377.72;;;-3.52;65.00
53300;BME280;39187;48.476;8.310;2023-02-27T15:13:36;91389.06;;;-3.57;64.86
53300;BME280;39187;48.476;8.310;2023-02-27T15:19:01;91384.63;;;-3.56;64.29